Date,TemperatureHighF,TemperatureAvgF,TemperatureLowF,DewpointHighF,DewpointAvgF,DewpointLowF,HumidityHigh,HumidityAvg,HumidityLow,PressureMaxIn,PressureMinIn,WindSpeedMaxMPH,WindSpeedAvgMPH,GustSpeedMaxMPH,PrecipitationSumIn
2013-1-1,32.4,20.8,12.0,15.0,7.8,0.0,89,61,34,30.11,29.99,10,1,13,0.00
2013-1-2,32.8,23.8,16.6,11.0,6.9,3.0,65,49,29,30.23,30.08,7,1,16,0.00
2013-1-3,38.2,23.6,9.7,9.0,2.2,-6.0,75,45,16,30.24,30.13,4,1,8,0.00
2013-1-4,47.6,31.0,15.6,16.0,8.1,1.0,62,41,18,30.15,30.01,4,0,9,0.00
2013-1-5,39.8,29.1,19.4,15.0,11.4,6.0,69,49,33,30.23,30.04,10,1,15,0.00
2013-1-6,48.0,32.1,19.6,14.0,7.5,-1.0,63,38,16,30.21,29.94,4,0,7,0.00
2013-1-7,53.3,39.9,29.0,21.0,8.2,1.0,70,30,12,30.01,29.83,8,1,10,0.00
2013-1-8,51.3,44.2,31.4,19.0,14.4,-1.0,56,31,14,30.18,29.82,17,4,28,0.00
2013-1-9,60.3,39.3,24.8,20.0,15.8,12.0,69,42,15,30.25,30.00,8,1,12,0.00
2013-1-10,44.7,34.8,26.0,20.0,15.9,10.0,59,47,27,29.99,29.53,7,1,16,0.00
2013-1-11,44.3,29.1,14.5,24.0,14.7,1.0,92,59,24,29.78,29.38,16,4,26,0.00
2013-1-12,13.1,7.6,3.3,6.0,2.7,0.0,95,80,67,29.96,29.79,7,1,13,0.00
2013-1-13,15.3,7.9,1.7,4.0,0.8,-2.0,85,74,55,30.05,29.95,6,0,10,0.00
2013-1-14,14.5,7.0,2.9,3.0,-0.0,-4.0,84,74,52,30.09,29.99,7,0,9,0.00
2013-1-15,30.8,18.1,0.8,13.0,3.0,-4.0,82,55,33,30.09,30.00,6,1,8,0.00
2013-1-16,54.1,37.7,24.4,21.0,17.0,12.0,63,45,25,30.30,30.09,6,1,10,0.00
2013-1-17,51.3,36.6,25.4,18.0,15.2,8.0,69,45,23,30.38,30.18,4,0,8,0.00
2013-1-18,56.6,44.3,28.7,12.0,5.7,1.0,49,22,11,30.17,30.05,13,3,20,0.00
2013-1-19,60.3,48.0,33.1,12.0,2.3,-9.0,42,16,8,30.21,30.07,11,3,25,0.00
2013-1-20,46.1,34.2,22.8,17.0,12.2,9.0,74,42,23,30.21,30.09,8,1,14,0.00
2013-1-21,55.9,38.3,17.3,16.0,8.9,-6.0,83,39,10,30.18,30.05,10,3,19,0.00
2013-1-22,60.1,53.6,42.1,0.0,-10.7,-23.0,17,7,3,30.13,30.02,28,8,33,0.00
2013-1-23,56.6,46.0,34.2,9.0,-0.9,-16.0,29,15,6,30.17,30.10,5,1,9,0.00
2013-1-24,63.5,52.2,30.9,27.0,13.8,-7.0,44,25,7,30.12,29.97,22,9,39,0.00
2013-1-25,57.3,43.7,32.0,28.0,25.3,23.0,70,50,31,30.14,30.04,9,1,13,0.00
2013-1-26,53.4,42.0,33.6,37.0,28.4,24.0,86,60,38,30.05,29.79,5,1,13,0.01
2013-1-27,56.6,43.4,31.5,37.0,31.8,20.0,93,67,40,29.81,29.75,9,1,11,0.00
2013-1-28,53.7,36.2,26.1,30.0,22.9,16.0,93,62,34,29.77,29.61,15,2,23,0.00
2013-1-29,26.5,22.7,20.5,23.0,18.5,8.0,92,85,46,29.77,29.73,0,0,0,0.00
2013-1-30,38.8,28.2,13.5,17.0,11.2,4.0,83,51,34,29.93,29.80,24,4,40,0.02
2013-1-31,45.4,37.7,24.0,24.0,17.2,14.0,77,45,30,30.10,29.89,20,5,35,0.00
2013-2-1,46.5,36.4,23.1,23.0,18.5,11.0,83,52,27,30.16,30.03,24,5,33,0.00
2013-2-2,56.0,39.9,24.8,20.0,15.1,6.0,69,41,13,30.27,30.16,11,2,18,0.00
2013-2-3,53.7,40.2,27.6,20.0,12.7,-2.0,67,37,10,30.20,29.91,12,2,20,0.00
2013-2-4,52.7,41.4,25.3,16.0,9.9,2.0,53,29,16,29.98,29.87,28,6,34,0.00
2013-2-5,59.2,46.1,33.9,22.0,16.0,14.0,50,31,19,30.04,29.86,6,1,13,0.00
2013-2-6,52.8,42.5,34.5,33.0,23.7,19.0,91,51,28,30.07,29.84,10,2,15,0.01
2013-2-7,47.3,35.9,25.8,32.0,21.7,12.0,92,61,27,30.14,30.00,8,1,12,0.00
2013-2-8,51.4,34.9,23.6,18.0,13.4,7.0,67,44,17,30.00,29.73,8,1,11,0.00
2013-2-9,35.7,29.7,23.7,29.0,20.6,12.0,90,70,47,29.74,29.59,12,3,18,0.01
2013-2-10,34.7,27.3,20.6,21.0,14.8,7.0,88,62,33,30.02,29.63,9,2,21,0.01
2013-2-11,27.7,22.0,16.2,16.0,14.2,12.0,87,72,56,30.03,29.94,7,1,13,0.00
2013-2-12,41.6,28.5,15.8,14.0,4.8,-8.0,86,44,12,30.01,29.97,3,0,9,0.00
2013-2-13,45.0,34.8,20.7,16.0,11.7,7.0,59,40,26,30.00,29.90,18,5,36,0.00
2013-2-14,40.2,27.7,22.5,23.0,18.0,11.0,88,69,30,30.22,29.99,18,3,23,0.00
2013-2-15,40.6,26.7,15.3,19.0,14.5,10.0,87,63,29,30.23,30.16,13,2,16,0.01
2013-2-16,53.8,44.9,28.1,17.0,12.7,8.0,58,28,20,30.16,29.97,20,6,26,0.00
2013-2-17,61.8,44.9,29.3,17.0,4.9,-17.0,48,24,4,29.98,29.62,13,4,32,0.00
2013-2-18,39.3,31.0,23.7,21.0,10.4,1.0,81,47,20,30.05,29.80,19,3,31,0.00
2013-2-19,40.0,28.9,18.7,15.0,10.3,6.0,67,48,29,30.05,29.80,8,1,10,0.00
2013-2-20,35.1,25.3,19.0,27.0,17.8,14.0,93,75,48,29.81,29.67,8,2,12,0.00
2013-2-21,25.9,19.8,14.0,20.0,16.0,11.0,91,85,73,29.88,29.72,6,1,13,0.14
2013-2-22,33.2,25.0,15.7,18.0,14.1,5.0,90,66,35,29.93,29.82,11,2,18,0.05
2013-2-23,46.0,31.4,18.5,27.0,15.7,4.0,92,55,31,29.84,29.64,12,2,15,0.00
2013-2-24,28.4,25.7,22.8,26.0,24.1,21.0,94,93,91,30.07,29.74,26,5,27,0.00
2013-2-25,37.6,24.7,12.9,22.0,16.7,10.0,91,74,35,30.06,29.83,8,1,9,0.16
2013-2-26,32.5,25.9,18.6,25.0,18.3,12.0,88,73,56,30.09,29.80,22,4,25,0.03
2013-2-27,35.5,27.1,18.3,14.0,10.1,3.0,76,50,29,30.17,30.09,11,2,14,0.00
2013-2-28,41.6,31.4,14.9,18.0,11.1,2.0,70,44,26,30.19,30.11,15,4,24,0.00
2013-3-1,46.2,36.5,26.4,24.0,18.6,14.0,67,49,34,30.26,30.18,8,2,13,0.00
2013-3-2,59.3,46.9,31.6,26.0,24.1,22.0,70,42,25,30.25,30.04,14,2,17,0.00
2013-3-3,62.5,52.7,40.8,26.0,22.1,17.0,53,32,19,30.03,29.72,20,4,27,0.00
2013-3-4,48.7,31.0,19.8,27.0,22.5,13.0,91,73,38,30.17,29.73,13,2,20,0.04
2013-3-5,38.0,25.8,12.5,22.0,15.9,8.0,85,68,46,30.20,30.10,9,1,12,0.02
2013-3-6,58.9,38.5,22.6,28.0,21.5,10.0,88,58,15,30.10,29.87,7,1,14,0.00
2013-3-7,63.0,48.0,33.7,30.0,24.3,17.0,67,42,19,29.98,29.88,10,2,17,0.00
2013-3-8,46.9,37.9,30.8,32.0,29.5,27.0,85,72,52,29.98,29.73,6,1,9,0.00
2013-3-9,34.3,30.5,24.0,31.0,28.0,20.0,96,90,79,30.07,29.69,16,4,27,0.08
2013-3-10,42.9,31.0,17.2,24.0,18.0,12.0,83,61,35,30.09,30.01,7,1,12,0.21
2013-3-11,52.1,40.8,30.1,30.0,22.2,14.0,94,52,28,30.12,29.93,19,6,32,0.00
2013-3-12,38.0,29.3,24.1,29.0,25.6,22.0,94,86,66,30.25,30.12,5,0,8,0.30
2013-3-13,63.6,46.7,27.8,35.0,27.1,22.0,90,51,24,30.23,30.13,19,3,27,0.01
2013-3-14,70.0,58.0,49.0,30.0,22.3,12.0,38,26,11,30.27,30.14,11,2,17,0.00
2013-3-15,73.5,63.2,49.1,25.0,21.9,19.0,36,21,13,30.14,29.92,15,5,27,0.00
2013-3-16,58.6,46.9,39.3,33.0,31.0,27.0,74,56,30,30.02,29.85,15,3,24,0.00
2013-3-17,57.8,44.8,33.7,29.0,22.5,11.0,71,44,17,29.87,29.61,21,5,35,0.00
2013-3-18,48.1,39.7,31.9,20.0,11.8,6.0,43,32,20,29.95,29.87,20,6,32,0.00
2013-3-19,54.2,43.4,30.7,16.0,4.1,-16.0,55,23,5,30.30,29.94,24,6,36,0.00
2013-3-20,51.8,37.6,21.7,25.0,19.2,15.0,78,51,28,30.29,29.78,6,1,16,0.00
2013-3-21,58.7,44.6,38.1,34.0,22.6,10.0,63,43,22,29.85,29.60,20,4,29,0.00
2013-3-22,46.2,33.7,26.0,29.0,19.7,10.0,94,60,33,29.91,29.70,16,4,28,0.00
2013-3-23,26.0,18.7,14.1,25.0,16.6,11.0,94,91,86,30.13,29.90,15,4,23,0.00
2013-3-24,25.9,18.1,8.9,19.0,14.1,6.0,91,84,71,30.15,30.04,7,1,10,0.23
2013-3-25,32.5,23.0,14.1,18.0,13.4,7.0,91,70,36,30.19,30.13,5,1,10,0.01
2013-3-26,52.2,34.0,19.4,29.0,20.1,11.0,81,59,30,30.13,29.92,8,2,12,0.00
2013-3-27,53.5,41.7,30.7,35.0,29.8,24.0,83,65,44,30.09,30.00,6,1,12,0.00
2013-3-28,63.4,48.1,33.8,36.0,32.0,26.0,90,59,25,30.12,30.05,9,1,14,0.00
2013-3-29,65.0,52.9,39.3,34.0,29.4,25.0,71,43,22,30.13,30.05,13,3,23,0.00
2013-3-30,64.3,49.0,39.2,39.0,31.0,20.0,84,54,20,30.21,30.03,19,3,30,0.00
2013-3-31,69.1,51.8,33.4,36.0,26.1,14.0,87,47,13,30.20,29.96,8,2,15,0.00
2013-4-1,51.3,40.8,31.1,34.0,29.9,25.0,86,66,45,30.14,30.01,22,4,22,0.00
2013-4-2,39.2,36.6,35.0,35.0,33.3,31.0,94,88,78,30.11,30.05,6,2,11,0.13
2013-4-3,60.7,46.3,35.7,39.0,33.3,27.0,95,67,29,30.14,30.05,6,1,10,0.03
2013-4-4,67.2,55.0,39.4,35.0,29.8,25.0,76,42,21,30.15,30.02,9,1,17,0.00
2013-4-5,72.3,60.0,47.7,35.0,27.0,20.0,54,31,15,30.02,29.77,26,3,37,0.00
2013-4-6,64.3,55.2,44.7,29.0,24.0,21.0,47,31,21,29.97,29.88,16,2,25,0.00
2013-4-7,62.6,57.4,49.7,32.0,26.0,22.0,51,31,21,29.86,29.75,20,7,32,0.00
2013-4-8,61.8,45.2,25.9,35.0,30.3,24.0,92,59,31,29.84,29.51,24,5,35,0.00
2013-4-9,25.5,16.9,10.9,24.0,14.0,8.0,92,88,83,30.14,29.85,12,6,20,0.00
2013-4-10,26.9,18.0,8.3,18.0,12.0,5.0,88,78,63,30.11,29.86,8,1,12,0.05
2013-4-11,54.1,37.4,19.3,34.0,24.6,16.0,88,63,35,29.87,29.75,12,2,19,0.00
2013-4-12,60.0,44.4,33.8,34.0,30.4,21.0,86,61,25,29.99,29.89,20,3,29,0.00
2013-4-13,67.9,49.9,31.3,35.0,27.3,18.0,92,52,15,29.96,29.51,9,2,21,0.01
2013-4-14,46.9,41.5,36.5,39.0,20.1,11.0,91,46,24,29.80,29.59,23,7,35,0.15
2013-4-15,38.4,27.7,22.2,27.0,22.4,13.0,99,83,35,30.00,29.76,12,3,15,0.00
2013-4-16,31.7,27.2,22.4,29.0,23.4,-99.9,94,90,87,30.00,29.84,11,-14,18,0.05
2013-4-17,30.5,25.6,19.3,29.0,24.0,17.0,95,93,89,30.11,29.91,23,5,26,0.03
2013-4-18,36.4,26.3,14.7,19.0,14.5,11.0,92,65,38,30.12,30.05,9,1,15,0.26
2013-4-19,51.7,42.4,29.7,27.0,19.4,14.0,57,40,27,30.10,29.96,17,6,25,0.00
2013-4-20,59.4,46.5,33.4,35.0,29.6,23.0,80,54,32,30.02,29.91,11,1,13,0.00
2013-4-21,62.2,51.0,38.3,35.0,26.0,16.0,86,42,18,30.07,29.98,10,2,22,0.00
2013-4-22,50.3,33.8,22.4,36.0,27.1,21.0,93,78,48,30.24,29.92,15,4,30,0.00
2013-4-23,33.1,25.2,19.7,22.0,18.8,15.0,93,78,52,30.22,30.10,5,1,9,0.34
2013-4-24,54.9,40.2,24.3,22.0,17.0,12.0,73,43,19,30.19,30.09,8,2,18,0.00
2013-4-25,64.7,49.0,33.0,31.0,20.7,8.0,65,36,15,30.15,29.93,9,1,13,0.00
2013-4-26,66.8,55.2,41.4,33.0,21.1,15.0,52,29,15,30.22,30.03,10,2,15,0.00
2013-4-27,73.7,60.3,44.2,28.0,21.2,14.0,52,25,11,30.21,30.05,9,2,16,0.00
2013-4-28,78.1,65.9,50.3,36.0,25.2,19.0,39,23,13,30.06,29.89,15,3,22,0.00
2013-4-29,76.6,65.5,50.3,36.0,28.9,22.0,53,29,13,29.98,29.72,17,4,30,0.00
2013-4-30,64.7,50.8,36.0,39.0,33.6,21.0,92,55,20,30.04,29.72,16,3,29,0.03
2013-5-1,36.6,29.5,23.4,35.0,28.1,22.0,96,94,92,30.51,30.05,12,2,17,0.21
2013-5-2,43.6,33.1,20.6,25.0,20.8,13.0,93,65,29,30.56,30.36,7,1,11,0.15
2013-5-3,59.3,46.3,29.2,33.0,25.1,21.0,82,48,25,30.35,30.09,12,1,16,0.00
2013-5-4,58.4,48.7,38.4,34.0,28.7,22.0,69,48,32,30.20,30.09,11,2,15,0.00
2013-5-5,55.8,46.8,36.2,37.0,27.5,23.0,64,49,34,30.20,30.09,8,2,11,0.00
2013-5-6,64.4,53.0,41.0,38.0,33.3,31.0,74,50,30,30.11,29.95,10,2,13,0.00
2013-5-7,69.4,55.9,46.8,45.0,38.3,33.0,86,55,27,30.05,29.92,10,2,17,0.04
2013-5-8,60.6,48.9,44.7,45.0,41.6,37.0,93,77,46,30.11,29.99,10,4,19,0.30
2013-5-9,56.6,49.4,43.7,45.0,42.1,38.0,93,77,52,30.20,30.09,17,2,24,0.09
2013-5-10,65.5,53.6,41.5,43.0,38.3,35.0,86,59,32,30.29,30.18,9,2,29,0.02
2013-5-11,67.0,56.1,44.9,43.0,38.7,35.0,76,54,31,30.38,30.22,15,2,34,0.04
2013-5-12,77.9,65.7,50.5,41.0,35.8,32.0,67,36,20,30.24,30.14,7,2,15,0.00
2013-5-13,84.1,72.8,59.1,45.0,37.9,33.0,45,29,18,30.19,30.07,10,1,13,0.00
2013-5-14,84.4,71.3,60.0,47.0,39.1,34.0,47,32,17,30.07,29.99,14,3,26,0.00
2013-5-15,81.1,65.6,56.7,54.0,43.6,37.0,84,49,23,30.06,29.93,16,2,22,0.19
2013-5-16,79.8,66.5,52.1,50.0,43.5,36.0,82,49,21,30.00,29.87,11,1,15,0.00
2013-5-17,86.3,70.6,53.7,48.0,35.1,19.0,71,34,9,29.95,29.81,9,1,19,0.00
2013-5-18,76.3,64.6,55.2,43.0,33.3,21.0,54,32,16,29.96,29.83,13,1,21,0.00
2013-5-19,68.7,59.3,50.6,40.0,33.2,25.0,61,40,20,29.91,29.82,14,2,19,0.00
2013-5-20,63.9,54.0,46.8,46.0,41.1,34.0,91,63,40,30.05,29.89,15,1,19,0.07
2013-5-21,70.3,57.1,43.2,42.0,35.5,29.0,85,49,23,30.07,29.92,11,1,22,0.00
2013-5-22,75.7,60.2,45.9,51.0,39.3,34.0,83,50,24,30.10,29.92,9,2,18,0.06
2013-5-23,70.8,58.3,46.8,50.0,46.8,44.0,91,68,42,30.12,29.99,6,1,13,0.00
2013-5-24,84.1,66.6,47.3,56.0,44.0,33.0,93,52,19,30.04,29.94,10,1,16,0.00
2013-5-25,88.3,72.0,55.6,55.0,38.9,19.0,81,37,8,30.04,29.91,5,1,12,0.00
2013-5-26,83.8,70.9,58.3,43.0,33.2,16.0,48,27,8,29.99,29.92,11,2,16,0.00
2013-5-27,82.4,69.5,57.2,41.0,30.3,21.0,51,26,11,29.93,29.82,10,1,21,0.00
2013-5-28,80.2,65.4,50.4,47.0,38.1,24.0,65,40,14,29.90,29.66,13,1,26,0.00
2013-5-29,66.7,56.6,47.2,50.0,43.5,33.0,95,65,33,29.80,29.69,14,2,23,0.50
2013-5-30,66.9,59.5,53.7,36.0,30.5,26.0,48,34,23,29.94,29.75,19,8,36,0.00
2013-5-31,69.5,61.4,52.3,29.0,21.6,14.0,36,23,12,30.05,29.90,22,7,29,0.00
2013-6-1,68.7,57.8,44.7,40.0,36.2,23.0,73,47,30,30.22,30.05,9,1,17,0.00
2013-6-2,84.4,64.5,43.4,43.0,35.8,31.0,71,38,15,30.21,29.89,3,0,7,0.00
2013-6-3,88.2,73.8,53.3,42.0,33.3,25.0,50,25,10,30.00,29.82,16,2,25,0.00
2013-6-4,72.5,60.8,50.3,55.0,45.3,24.0,91,60,22,30.23,29.99,11,1,27,0.06
2013-6-5,58.2,51.2,46.0,48.0,45.5,42.0,93,81,67,30.23,30.15,6,0,9,0.01
2013-6-6,78.1,61.6,44.8,50.0,42.5,36.0,90,56,22,30.16,30.07,11,0,12,0.00
2013-6-7,79.8,66.0,52.7,47.0,43.0,39.0,66,45,24,30.14,29.88,21,1,21,0.00
2013-6-8,75.7,67.9,57.5,50.0,43.6,39.0,57,42,32,30.10,29.84,14,2,19,0.00
2013-6-9,90.0,71.5,51.8,48.0,41.6,35.0,80,40,16,30.09,29.98,7,0,11,0.00
2013-6-10,95.9,81.0,63.8,49.0,39.3,34.0,46,25,12,30.02,29.93,9,0,13,0.00
2013-6-11,97.1,81.5,62.7,47.0,33.9,9.0,44,22,4,30.04,29.86,18,2,22,0.00
2013-6-12,91.3,77.3,61.4,44.0,35.1,25.0,44,23,13,30.18,30.03,10,1,17,0.00
2013-6-13,84.0,73.0,57.6,58.0,52.9,40.0,85,52,26,30.16,29.97,6,1,14,0.00
2013-6-14,87.2,76.9,64.1,51.0,42.5,31.0,59,31,14,30.04,29.95,17,2,18,0.01
2013-6-15,80.3,68.7,56.2,55.0,48.9,46.0,74,51,34,30.13,30.03,5,0,12,0.00
2013-6-16,85.1,69.2,56.5,53.0,46.1,36.0,82,48,18,30.18,30.09,17,1,20,0.00
2013-6-17,80.1,67.4,54.1,52.0,46.2,38.0,69,49,22,30.20,30.08,9,1,16,0.00
2013-6-18,82.7,67.3,55.0,55.0,50.8,43.0,86,58,27,30.17,29.96,9,1,15,0.00
2013-6-19,94.1,73.6,54.6,51.0,42.7,25.0,82,41,9,30.04,29.77,9,1,14,0.00
2013-6-20,89.5,74.3,59.8,51.0,36.8,19.0,73,30,11,30.01,29.85,6,0,14,0.00
2013-6-21,90.6,76.4,60.7,59.0,41.5,24.0,68,35,10,29.99,29.87,22,1,24,0.00
2013-6-22,84.6,70.2,57.1,51.0,47.9,41.0,73,47,21,30.03,29.85,7,1,15,0.00
2013-6-23,84.0,67.3,54.8,54.0,48.1,41.0,83,54,24,30.09,29.91,11,1,23,0.13
2013-6-24,87.2,73.2,58.4,54.0,42.9,25.0,72,40,14,29.99,29.84,9,0,10,0.00
2013-6-25,89.7,77.7,63.9,48.0,36.9,27.0,47,24,15,30.09,29.90,12,2,23,0.00
2013-6-26,95.5,79.7,60.5,49.0,41.3,36.0,53,28,13,30.15,30.07,8,1,14,0.00
2013-6-27,94.8,82.4,68.2,55.0,43.4,38.0,46,27,15,30.28,30.13,10,1,14,0.00
2013-6-28,92.7,77.2,63.2,59.0,52.8,45.0,83,44,29,30.29,30.18,15,2,23,0.16
2013-6-29,82.7,72.3,61.5,58.0,55.1,51.0,79,56,36,30.27,30.15,5,0,15,0.01
2013-6-30,77.3,68.6,62.0,59.0,55.6,52.0,79,64,48,30.23,30.18,7,1,16,0.00
2013-7-1,79.8,68.6,59.3,57.0,53.6,48.0,90,61,38,30.30,30.23,8,1,17,0.10
2013-7-2,82.3,68.8,54.9,57.0,51.9,44.0,92,60,30,30.29,30.17,8,1,13,0.01
2013-7-3,87.3,72.2,57.7,52.0,48.2,44.0,73,46,23,30.16,29.99,10,1,17,0.03
2013-7-4,89.8,75.7,62.4,54.0,47.9,44.0,60,39,21,30.07,29.99,10,1,18,0.00
2013-7-5,89.5,74.2,65.4,59.0,51.9,48.0,62,47,27,30.00,29.93,11,1,22,0.00
2013-7-6,90.6,75.0,66.2,61.0,51.9,46.0,69,46,22,30.06,29.94,9,1,27,0.04
2013-7-7,84.8,74.7,64.8,58.0,53.8,49.0,70,49,33,30.12,30.05,4,0,12,0.00
2013-7-8,94.0,76.9,64.7,58.0,51.3,40.0,71,44,16,30.16,30.09,12,1,23,0.00
2013-7-9,92.9,79.1,66.2,56.0,47.7,40.0,55,36,16,30.24,30.16,8,0,14,0.00
2013-7-10,87.4,75.6,61.4,59.0,52.9,44.0,69,46,31,30.27,30.09,6,0,11,0.00
2013-7-11,96.9,76.4,62.2,59.0,54.6,40.0,76,51,14,30.15,29.95,11,1,17,0.03
2013-7-12,90.4,74.6,66.7,62.0,56.3,51.0,84,55,28,30.13,30.01,16,1,24,0.02
2013-7-13,91.2,71.5,62.2,62.0,59.7,55.0,94,70,31,30.22,30.09,10,1,16,0.01
2013-7-14,80.7,69.7,59.1,63.0,59.3,57.0,94,72,46,30.27,30.14,11,1,15,0.15
2013-7-15,76.5,68.5,63.8,66.0,60.3,48.0,96,77,54,30.24,30.15,5,0,19,0.06
2013-7-16,82.9,69.8,55.5,55.0,50.9,46.0,86,53,32,30.24,30.16,7,1,12,0.00
2013-7-17,80.6,66.6,59.4,59.0,53.6,48.0,83,66,32,30.26,30.15,4,0,9,0.00
2013-7-18,91.4,75.8,65.0,57.0,53.5,48.0,72,48,27,30.22,30.13,16,2,26,0.00
2013-7-19,82.7,73.6,65.3,59.0,56.2,52.0,74,56,37,30.22,30.13,11,2,16,0.00
2013-7-20,90.3,72.8,60.4,59.0,54.2,50.0,82,56,26,30.13,30.01,11,1,28,0.00
2013-7-21,88.1,73.4,58.2,60.0,56.2,49.0,82,57,31,30.06,29.97,9,1,16,0.00
2013-7-22,93.0,79.3,62.9,59.0,51.9,39.0,80,42,21,30.07,29.97,10,1,14,0.00
2013-7-23,89.7,76.7,65.6,58.0,47.1,33.0,59,36,18,30.19,30.02,12,1,12,0.00
2013-7-24,81.3,72.7,62.2,63.0,55.8,45.0,73,57,31,30.22,30.10,14,1,20,0.00
2013-7-25,77.6,65.3,58.1,60.0,54.8,51.0,91,70,43,30.28,30.11,7,1,19,0.15
2013-7-26,83.0,70.3,57.6,56.0,51.4,45.0,82,54,27,30.30,30.18,7,1,17,0.00
2013-7-27,77.5,66.6,56.9,61.0,54.2,49.0,93,66,46,30.20,30.09,9,1,13,0.09
2013-7-28,69.8,62.4,58.7,62.0,58.7,57.0,96,88,70,30.14,30.00,5,0,8,0.12
2013-7-29,73.8,63.8,58.1,63.0,57.7,54.0,98,82,52,30.21,30.00,7,0,17,0.02
2013-7-30,88.5,71.8,58.1,56.0,52.1,48.0,82,54,25,30.27,30.19,9,1,22,0.00
2013-7-31,90.6,74.4,60.7,56.0,51.8,44.0,76,49,20,30.33,30.18,4,0,16,0.00
2013-8-1,89.2,72.7,61.6,59.0,53.7,43.0,82,55,20,30.25,30.05,5,0,19,0.00
2013-8-2,90.6,76.1,60.7,56.0,51.2,43.0,75,45,20,30.12,30.02,7,0,11,0.00
2013-8-3,89.2,72.0,60.1,62.0,56.5,47.0,92,62,26,30.30,30.11,10,1,22,0.23
2013-8-4,88.9,72.0,57.6,59.0,53.2,45.0,83,55,25,30.24,30.13,6,0,13,0.00
2013-8-5,84.5,72.7,61.9,58.0,51.7,48.0,74,50,31,30.15,30.08,9,1,19,0.01
2013-8-6,88.3,71.8,61.0,58.0,50.6,43.0,78,50,25,30.14,30.05,8,1,20,0.04
2013-8-7,74.2,65.5,60.1,57.0,53.1,47.0,85,65,47,30.17,30.07,6,0,11,0.00
2013-8-8,74.9,63.8,58.8,59.0,55.5,47.0,93,76,48,30.21,30.08,8,1,12,0.00
2013-8-9,78.3,65.1,53.0,54.0,50.1,46.0,84,61,33,30.23,30.17,9,1,22,0.00
2013-8-10,86.4,68.5,54.5,54.0,48.7,44.0,83,53,23,30.24,30.13,21,1,22,0.27
2013-8-11,81.8,70.4,59.9,54.0,50.2,46.0,72,51,30,30.23,30.17,7,0,11,0.00
2013-8-12,81.0,67.5,56.5,57.0,52.9,49.0,93,62,34,30.30,30.16,9,1,19,0.30
2013-8-13,76.6,65.0,53.5,56.0,51.6,48.0,91,64,37,30.27,30.17,14,1,23,0.01
2013-8-14,82.9,67.4,54.6,56.0,50.5,44.0,93,59,28,30.25,30.15,8,1,14,0.00
2013-8-15,86.6,69.8,56.6,53.0,47.1,37.0,74,47,20,30.22,30.14,13,1,19,0.00
2013-8-16,90.9,74.5,58.2,54.0,46.0,38.0,73,40,16,30.21,30.15,7,1,11,0.00
2013-8-17,93.2,76.8,58.9,57.0,46.6,31.0,84,41,11,30.20,30.07,3,0,9,0.00
2013-8-18,91.5,76.0,61.0,59.0,49.6,38.0,82,44,16,30.19,30.11,9,1,19,0.00
2013-8-19,94.5,78.3,61.3,54.0,47.1,40.0,70,37,15,30.17,30.07,4,0,10,0.00
2013-8-20,95.1,80.2,62.2,55.0,45.3,34.0,65,33,12,30.11,30.03,6,0,17,0.00
2013-8-21,91.2,75.3,65.2,61.0,50.8,44.0,82,45,21,30.19,30.10,10,1,28,0.71
2013-8-22,81.4,69.0,61.2,63.0,58.3,55.0,86,69,49,30.27,30.14,8,0,14,0.04
2013-8-23,85.4,70.6,60.4,61.0,56.8,51.0,84,64,34,30.23,30.03,16,1,21,0.09
2013-8-24,85.2,71.1,58.3,60.0,54.0,50.0,80,57,31,30.16,30.07,24,1,26,0.01
2013-8-25,89.5,74.4,61.8,57.0,53.1,48.0,73,50,24,30.20,30.13,7,1,16,0.00
2013-8-26,89.5,75.6,62.6,60.0,56.0,53.0,80,53,30,30.19,30.14,6,1,17,0.00
2013-8-27,88.4,76.5,63.2,59.0,56.2,53.0,74,51,34,30.20,30.09,6,0,9,0.00
2013-8-28,91.7,77.9,64.9,59.0,53.6,48.0,67,45,22,30.17,30.11,5,1,11,0.00
2013-8-29,92.8,78.9,64.4,57.0,50.7,47.0,60,39,21,30.22,30.16,14,1,18,0.00
2013-8-30,87.6,75.4,68.1,58.0,53.2,49.0,66,47,29,30.23,30.15,5,0,11,0.00
2013-8-31,88.7,74.9,65.3,59.0,52.1,48.0,68,47,26,30.17,30.11,8,1,18,0.00
2013-9-1,77.1,69.2,61.3,62.0,57.6,50.0,89,67,50,30.25,30.15,6,0,10,0.02
2013-9-2,90.4,73.7,59.1,60.0,55.0,48.0,88,56,23,30.19,30.08,4,0,9,0.00
2013-9-3,92.5,78.5,67.1,58.0,53.4,50.0,66,43,23,30.18,30.10,8,0,17,0.00
2013-9-4,89.6,76.8,67.9,61.0,54.3,50.0,68,47,27,30.24,30.17,5,0,11,0.00
2013-9-5,92.8,76.5,64.4,59.0,53.7,48.0,74,48,22,30.25,30.16,6,1,10,0.00
2013-9-6,95.3,78.5,64.0,57.0,50.5,45.0,66,40,18,30.21,30.10,10,1,21,0.00
2013-9-7,93.3,77.2,61.1,55.0,50.2,39.0,72,42,17,30.18,30.06,5,0,11,0.00
2013-9-8,90.0,74.4,60.5,55.0,50.2,47.0,72,45,24,30.10,29.96,5,0,16,0.00
2013-9-9,81.5,66.7,57.8,62.0,53.8,-99.9,95,70,39,30.12,29.96,9,-15,16,0.48
2013-9-10,65.2,60.0,58.1,60.0,58.2,57.0,97,94,80,30.23,30.09,5,0,10,0.33
2013-9-11,68.4,61.4,59.2,63.0,60.0,58.0,97,95,78,30.24,30.20,8,1,16,1.61
2013-9-12,63.5,60.3,58.2,62.0,59.2,57.0,98,96,92,30.30,30.22,11,1,18,0.83
2013-9-13,77.2,63.3,57.7,63.0,59.4,57.0,98,89,54,30.22,29.98,7,0,8,0.29
2013-9-14,74.9,65.9,56.7,62.0,53.9,-99.9,95,72,45,30.09,29.96,6,1,17,0.00
2013-9-15,60.6,57.1,54.0,57.0,55.1,53.0,96,93,85,30.29,30.08,6,1,13,0.85
2013-9-16,75.1,61.4,53.8,58.0,55.2,53.0,97,82,52,30.26,30.09,2,0,7,0.07
2013-9-17,83.4,67.9,52.7,56.0,49.1,38.0,94,57,21,30.11,29.92,10,0,11,0.00
2013-9-18,84.1,69.2,58.7,54.0,46.8,41.0,67,46,26,29.98,29.88,14,1,36,0.00
2013-9-19,67.1,59.3,52.3,47.0,43.5,37.0,81,57,44,30.20,29.96,9,0,11,0.00
2013-9-20,74.6,59.0,47.5,50.0,45.3,41.0,85,63,33,30.20,30.08,4,0,8,0.00
2013-9-21,82.3,65.3,49.5,49.0,44.6,39.0,81,52,23,30.09,29.89,8,0,9,0.00
2013-9-22,78.2,64.3,54.4,52.0,46.5,40.0,92,55,34,29.89,29.70,11,1,15,0.05
2013-9-23,64.5,57.0,49.5,52.0,40.5,32.0,95,60,31,30.09,29.67,20,5,33,0.62
2013-9-24,78.2,59.3,42.9,48.0,36.6,28.0,74,47,20,30.15,29.91,3,0,8,0.00
2013-9-25,80.2,63.3,45.2,52.0,42.6,35.0,83,50,26,29.91,29.60,7,0,11,0.00
2013-9-26,68.3,57.3,44.6,48.0,43.5,35.0,83,62,35,29.87,29.67,8,1,11,0.00
2013-9-27,55.1,47.0,40.2,50.0,44.8,34.0,96,92,76,30.04,29.81,8,1,13,0.21
2013-9-28,70.1,54.1,38.4,42.0,31.2,24.0,74,44,24,30.14,30.03,12,2,24,0.00
2013-9-29,78.1,61.2,43.0,43.0,32.0,25.0,72,37,15,30.13,29.95,20,2,24,0.00
2013-9-30,83.3,64.0,55.0,45.0,34.1,-99.9,52,35,20,29.98,29.87,7,-14,26,0.00
2013-10-1,74.3,61.7,48.6,46.0,40.7,31.0,70,47,31,30.12,29.97,7,1,13,0.00
2013-10-2,75.4,60.9,46.8,47.0,42.0,35.0,84,55,23,30.03,29.94,10,1,14,0.00
2013-10-3,61.9,51.9,42.6,47.0,41.8,38.0,94,70,49,29.98,29.81,6,1,14,0.05
2013-10-4,47.8,37.3,31.4,46.0,33.7,27.0,96,87,65,30.17,29.83,15,2,24,0.36
2013-10-5,61.1,44.1,28.2,30.0,22.9,16.0,91,51,18,30.19,30.12,14,2,23,0.01
2013-10-6,68.9,52.2,35.1,38.0,29.3,17.0,71,44,25,30.24,30.17,6,0,9,0.00
2013-10-7,78.3,58.7,42.5,41.0,33.9,22.0,81,46,13,30.20,29.97,6,0,7,0.00
2013-10-8,77.7,62.6,52.0,44.0,35.0,26.0,55,38,15,29.96,29.81,5,0,11,0.00
2013-10-9,63.5,55.4,48.3,44.0,39.7,32.0,82,56,44,30.02,29.88,8,1,12,0.00
2013-10-10,58.4,50.2,43.7,49.0,42.6,28.0,93,77,40,30.00,29.64,18,1,25,0.17
2013-10-11,60.5,53.1,42.3,40.0,32.8,27.0,84,48,34,30.06,29.59,23,4,33,0.00
2013-10-12,56.5,46.5,40.1,42.0,39.9,37.0,93,79,58,30.18,30.06,7,1,11,0.00
2013-10-13,60.4,48.3,37.7,45.0,40.5,35.0,92,76,52,30.14,29.93,4,0,9,0.00
2013-10-14,54.6,45.9,38.7,43.0,37.3,30.0,90,73,49,30.17,29.88,16,2,17,0.04
2013-10-15,42.1,37.2,34.3,31.0,26.8,23.0,80,66,57,30.27,30.17,5,0,10,0.00
2013-10-16,53.8,39.6,28.4,33.0,27.9,26.0,90,66,38,30.18,30.02,5,0,8,0.00
2013-10-17,47.5,40.3,34.4,33.0,30.0,25.0,79,67,54,30.12,30.04,7,1,10,0.00
2013-10-18,43.0,35.9,31.0,33.0,29.5,27.0,95,79,57,30.17,30.05,8,1,17,0.21
2013-10-19,62.2,49.2,31.0,32.0,24.8,20.0,86,43,21,30.10,29.94,16,3,24,0.00
2013-10-20,54.8,43.6,34.4,36.0,30.9,21.0,95,66,27,30.12,29.93,9,1,14,0.17
2013-10-21,58.5,44.3,29.9,36.0,29.2,25.0,95,61,29,30.17,30.09,6,0,10,0.01
2013-10-22,59.1,48.9,40.0,34.0,30.2,27.0,71,50,33,30.21,30.13,6,1,14,0.00
2013-10-23,63.4,50.7,38.6,40.0,33.4,28.0,78,54,31,30.21,30.12,7,0,10,0.00
2013-10-24,55.1,44.6,34.5,40.0,36.6,32.0,92,74,54,30.25,30.19,4,0,8,0.00
2013-10-25,67.7,50.8,36.1,41.0,35.1,29.0,92,60,26,30.23,30.11,7,0,8,0.00
2013-10-26,61.2,50.2,40.4,38.0,33.4,30.0,75,54,34,30.33,30.14,3,0,8,0.00
2013-10-27,70.5,53.9,38.7,35.0,28.7,22.0,74,43,17,30.13,29.89,20,1,21,0.00
2013-10-28,50.1,37.5,31.7,34.0,31.3,28.0,95,81,42,30.07,29.91,7,1,16,0.02
2013-10-29,37.1,34.3,31.8,34.0,32.1,31.0,96,91,81,30.02,29.89,6,0,7,0.04
2013-10-30,43.9,37.0,32.1,38.0,33.3,24.0,97,87,53,29.96,29.85,9,1,15,0.12
2013-10-31,50.9,45.5,36.5,27.0,22.2,18.0,58,40,30,29.92,29.84,24,6,35,0.00
2013-11-1,52.0,43.7,36.8,32.0,27.1,20.0,76,54,30,30.19,29.91,14,2,26,0.00
2013-11-2,65.9,45.7,30.8,32.0,24.3,18.0,83,48,17,30.19,29.81,4,0,8,0.00
2013-11-3,67.4,52.9,37.2,30.0,21.5,12.0,70,34,14,29.88,29.64,13,2,22,0.00
2013-11-4,42.0,34.9,30.2,31.0,20.5,13.0,90,58,34,30.02,29.88,10,2,15,0.00
2013-11-5,43.4,34.1,27.4,25.0,16.1,6.0,76,50,24,30.12,29.91,13,2,24,0.00
2013-11-6,50.4,43.4,29.3,21.0,16.1,5.0,48,34,25,30.29,30.09,18,8,35,0.00
2013-11-7,56.4,43.9,30.2,32.0,23.5,16.0,65,46,30,30.33,30.02,6,1,18,0.00
2013-11-8,66.1,53.0,37.7,26.0,21.6,15.0,62,32,17,30.03,29.85,19,2,33,0.00
2013-11-9,63.4,48.4,37.1,34.0,27.9,21.0,68,47,23,30.23,30.03,7,1,14,0.00
2013-11-10,66.7,49.6,33.7,33.0,25.9,20.0,85,46,17,30.22,30.14,6,0,10,0.00
2013-11-11,66.1,44.6,30.8,31.0,26.1,20.0,90,54,18,30.55,30.18,15,2,26,0.00
2013-11-12,59.0,42.6,30.5,33.0,29.7,26.0,90,64,32,30.55,30.33,5,0,8,0.00
2013-11-13,69.5,52.0,34.0,32.0,20.4,11.0,77,33,11,30.32,30.03,12,2,20,0.00
2013-11-14,57.1,49.6,40.5,34.0,29.7,22.0,71,48,27,30.11,29.81,7,1,17,0.00
2013-11-15,63.5,49.1,33.9,33.0,22.2,13.0,82,41,14,29.81,29.57,17,2,25,0.00
2013-11-16,58.9,46.5,37.0,32.0,21.6,14.0,72,40,19,29.63,29.42,14,3,31,0.00
2013-11-17,55.6,45.2,35.4,30.0,18.9,14.0,79,37,19,30.06,29.63,18,6,31,0.00
2013-11-18,64.6,45.8,28.7,23.0,16.7,10.0,63,35,12,30.12,30.03,6,1,12,0.00
2013-11-19,60.4,48.4,34.5,31.0,21.8,13.0,61,36,24,30.02,29.78,14,3,29,0.00
2013-11-20,58.2,49.4,29.2,31.0,25.9,22.0,82,42,25,30.03,29.81,23,2,29,0.00
2013-11-21,27.8,16.7,13.4,24.0,13.0,9.0,91,85,78,30.45,30.04,9,3,14,0.00
2013-11-22,32.9,25.8,16.6,21.0,15.4,7.0,81,66,41,30.48,30.36,8,1,15,0.06
2013-11-23,33.2,27.9,24.4,21.0,18.9,5.0,82,69,38,30.49,30.24,4,0,9,0.01
2013-11-24,39.8,29.6,22.1,29.0,22.5,18.0,87,76,42,30.23,29.96,10,1,16,0.01
2013-11-25,40.6,36.2,31.5,29.0,23.1,15.0,83,60,36,30.26,30.02,9,1,16,0.00
2013-11-26,48.8,37.7,29.0,26.0,21.4,17.0,79,55,29,30.33,30.20,5,0,9,0.00
2013-11-27,63.8,43.3,27.2,26.0,21.3,18.0,79,46,18,30.20,30.03,9,1,13,0.00
2013-11-28,45.9,37.6,32.1,29.0,25.8,22.0,84,64,45,30.18,30.11,7,1,9,0.00
2013-11-29,61.3,46.7,30.5,30.0,21.5,17.0,87,42,18,30.15,30.07,12,2,20,0.00
2013-11-30,59.4,46.7,34.9,24.0,16.8,13.0,59,32,17,30.16,30.09,9,1,14,0.00
2013-12-1,56.5,47.0,35.3,26.0,20.6,15.0,65,37,22,30.14,29.89,31,6,48,0.00
2013-12-2,59.8,52.4,43.8,26.0,21.7,18.0,44,31,20,29.90,29.64,19,4,29,0.00
2013-12-3,53.8,36.2,11.6,29.0,18.5,8.0,86,53,31,29.78,29.55,12,4,22,0.00
2013-12-4,11.2,7.1,0.1,8.0,2.7,-5.0,86,82,76,30.00,29.75,7,2,11,0.00
2013-12-5,5.3,0.9,-3.7,-1.0,-4.3,-8.0,85,79,68,30.03,29.92,8,1,13,0.00
2013-12-6,5.5,0.5,-3.4,1.0,-3.9,-7.0,92,82,72,30.12,30.02,5,0,7,0.00
2013-12-7,8.2,2.2,-2.6,2.0,-2.0,-6.0,86,82,74,30.10,29.75,5,0,6,0.00
2013-12-8,22.6,9.1,3.1,10.0,4.1,0.0,86,80,44,29.96,29.69,8,1,14,0.01
2013-12-9,25.5,14.4,-0.8,4.0,-1.7,-6.0,88,54,26,30.06,29.94,24,4,40,0.01
2013-12-10,44.8,33.8,20.9,15.0,9.7,1.0,60,38,27,30.18,29.91,30,4,43,0.02
2013-12-11,31.1,22.8,15.3,18.0,14.8,11.0,87,72,54,30.25,30.19,8,1,14,0.00
2013-12-12,55.0,34.7,20.7,22.0,16.1,9.0,85,50,18,30.23,29.93,5,0,6,0.00
2013-12-13,48.7,36.8,28.8,20.0,15.3,10.0,66,43,21,30.12,29.86,10,1,17,0.00
2013-12-14,46.4,35.4,24.1,19.0,15.8,10.0,75,48,24,30.23,30.12,13,2,22,0.00
2013-12-15,55.3,47.9,38.5,20.0,16.4,12.0,42,29,20,30.14,30.07,25,6,40,0.00
2013-12-16,60.3,53.7,46.2,21.0,13.1,5.0,32,21,12,30.22,30.09,20,6,32,0.00
2013-12-17,62.0,50.4,32.5,18.0,14.2,8.0,50,25,13,30.27,30.07,14,3,21,0.00
2013-12-18,65.0,57.3,46.7,17.0,11.8,9.0,26,17,11,30.06,29.78,20,5,27,0.00
2013-12-19,50.1,34.4,16.2,25.0,19.3,12.0,90,58,22,29.88,29.62,11,3,18,0.00
2013-12-20,23.0,19.4,15.3,20.0,17.0,13.0,91,89,86,29.88,29.68,4,0,8,0.00
2013-12-21,31.0,22.8,15.2,24.0,19.2,13.0,94,86,66,29.89,29.59,9,1,15,0.00
2013-12-22,38.1,27.6,18.2,21.0,16.4,11.0,92,67,33,30.17,29.89,29,3,33,0.01
2013-12-23,46.8,31.9,17.2,24.0,19.5,15.0,91,65,33,30.21,30.07,19,3,27,0.02
2013-12-24,53.6,42.2,25.7,30.0,19.5,8.0,65,42,27,30.23,29.99,22,6,35,0.00
2013-12-25,44.9,31.5,20.1,15.0,9.7,4.0,73,44,20,30.32,30.16,8,1,12,0.00
2013-12-26,52.8,44.0,30.5,18.0,10.1,1.0,52,27,16,30.25,30.14,18,2,27,0.00
2013-12-27,60.4,41.9,29.1,23.0,19.0,15.0,68,43,21,30.23,30.04,4,0,6,0.00
2013-12-28,58.4,38.5,19.9,27.0,21.7,17.0,91,54,23,30.19,29.88,13,3,22,0.00
2013-12-29,40.3,26.5,15.3,20.0,14.7,9.0,89,65,28,30.19,29.90,17,2,29,0.03
2013-12-30,46.0,39.5,31.6,16.0,13.7,10.0,47,35,25,30.16,29.93,30,7,37,0.00
2013-12-31,52.8,45.1,33.1,23.0,18.6,11.0,46,35,28,30.06,29.92,27,6,38,0.00
2014-1-1,46.9,39.1,31.9,30.0,25.1,20.0,89,61,38,30.14,29.91,12,3,19,0.02